sensor_id;sensor_type;location;lat;lon;timestamp;temperature;humidity
43697;DHT22;29301;47.620;19.560;2023-02-19T00:01:11;11.40;62.70
43697;DHT22;29301;47.620;19.560;2023-02-19T00:03:37;11.40;62.90
43697;DHT22;29301;47.620;19.560;2023-02-19T00:06:07;11.30;63.00
43697;DHT22;29301;47.620;19.560;2023-02-19T00:08:34;11.30;63.00
43697;DHT22;29301;47.620;19.560;2023-02-19T00:11:00;11.30;62.90
43697;DHT22;29301;47.620;19.560;2023-02-19T00:13:26;11.20;62.80
43697;DHT22;29301;47.620;19.560;2023-02-19T00:15:52;11.20;62.80
43697;DHT22;29301;47.620;19.560;2023-02-19T00:18:17;11.20;62.70
43697;DHT22;29301;47.620;19.560;2023-02-19T00:20:43;11.10;62.60
43697;DHT22;29301;47.620;19.560;2023-02-19T00:23:08;11.10;62.30
43697;DHT22;29301;47.620;19.560;2023-02-19T00:25:37;11.10;62.20
43697;DHT22;29301;47.620;19.560;2023-02-19T00:28:02;11.10;62.10
43697;DHT22;29301;47.620;19.560;2023-02-19T00:30:28;11.10;62.20
43697;DHT22;29301;47.620;19.560;2023-02-19T00:32:54;11.10;62.20
43697;DHT22;29301;47.620;19.560;2023-02-19T00:35:20;11.00;62.10
43697;DHT22;29301;47.620;19.560;2023-02-19T00:37:45;11.00;62.00
43697;DHT22;29301;47.620;19.560;2023-02-19T00:40:11;11.00;62.00
43697;DHT22;29301;47.620;19.560;2023-02-19T00:42:36;11.10;61.80
43697;DHT22;29301;47.620;19.560;2023-02-19T00:45:02;11.10;61.70
43697;DHT22;29301;47.620;19.560;2023-02-19T00:47:28;11.00;61.60
43697;DHT22;29301;47.620;19.560;2023-02-19T00:49:53;11.00;61.60
43697;DHT22;29301;47.620;19.560;2023-02-19T00:52:19;11.00;61.70
43697;DHT22;29301;47.620;19.560;2023-02-19T00:54:44;10.90;61.50
43697;DHT22;29301;47.620;19.560;2023-02-19T00:57:10;10.90;61.40
43697;DHT22;29301;47.620;19.560;2023-02-19T00:59:35;10.90;61.70
43697;DHT22;29301;47.620;19.560;2023-02-19T01:02:01;10.90;61.10
43697;DHT22;29301;47.620;19.560;2023-02-19T01:04:27;10.90;60.70
43697;DHT22;29301;47.620;19.560;2023-02-19T01:06:52;11.00;60.50
43697;DHT22;29301;47.620;19.560;2023-02-19T01:09:18;11.00;60.40
43697;DHT22;29301;47.620;19.560;2023-02-19T01:11:43;11.00;60.30
43697;DHT22;29301;47.620;19.560;2023-02-19T01:14:09;11.00;60.30
43697;DHT22;29301;47.620;19.560;2023-02-19T01:16:35;11.10;60.30
43697;DHT22;29301;47.620;19.560;2023-02-19T01:19:00;11.10;60.20
43697;DHT22;29301;47.620;19.560;2023-02-19T01:21:27;11.00;60.40
43697;DHT22;29301;47.620;19.560;2023-02-19T01:23:53;11.00;60.50
43697;DHT22;29301;47.620;19.560;2023-02-19T01:26:22;11.00;60.80
43697;DHT22;29301;47.620;19.560;2023-02-19T01:28:48;10.90;60.90
43697;DHT22;29301;47.620;19.560;2023-02-19T01:31:15;11.00;60.70
43697;DHT22;29301;47.620;19.560;2023-02-19T01:33:44;11.00;60.60
43697;DHT22;29301;47.620;19.560;2023-02-19T01:36:11;11.00;60.80
43697;DHT22;29301;47.620;19.560;2023-02-19T01:38:37;10.90;60.90
43697;DHT22;29301;47.620;19.560;2023-02-19T01:41:03;10.90;61.20
43697;DHT22;29301;47.620;19.560;2023-02-19T01:43:33;10.90;61.30
43697;DHT22;29301;47.620;19.560;2023-02-19T01:45:59;10.90;61.50
43697;DHT22;29301;47.620;19.560;2023-02-19T01:50:53;10.90;61.60
43697;DHT22;29301;47.620;19.560;2023-02-19T01:53:21;10.80;61.80
43697;DHT22;29301;47.620;19.560;2023-02-19T01:55:49;10.80;62.10
43697;DHT22;29301;47.620;19.560;2023-02-19T01:58:16;10.70;62.30
43697;DHT22;29301;47.620;19.560;2023-02-19T02:00:42;10.70;62.50
43697;DHT22;29301;47.620;19.560;2023-02-19T02:03:07;10.70;62.80
43697;DHT22;29301;47.620;19.560;2023-02-19T02:05:41;10.50;63.10
43697;DHT22;29301;47.620;19.560;2023-02-19T02:08:08;10.50;63.60
43697;DHT22;29301;47.620;19.560;2023-02-19T02:10:52;10.40;64.00
43697;DHT22;29301;47.620;19.560;2023-02-19T02:13:19;10.40;64.30
43697;DHT22;29301;47.620;19.560;2023-02-19T02:15:57;10.40;64.50
43697;DHT22;29301;47.620;19.560;2023-02-19T02:18:28;10.40;64.40
43697;DHT22;29301;47.620;19.560;2023-02-19T02:31:01;10.50;64.10
43697;DHT22;29301;47.620;19.560;2023-02-19T02:36:02;10.50;64.30
43697;DHT22;29301;47.620;19.560;2023-02-19T02:38:29;10.50;64.40
43697;DHT22;29301;47.620;19.560;2023-02-19T02:40:56;10.40;64.50
43697;DHT22;29301;47.620;19.560;2023-02-19T02:43:22;10.40;64.60
43697;DHT22;29301;47.620;19.560;2023-02-19T02:45:48;10.40;64.80
43697;DHT22;29301;47.620;19.560;2023-02-19T02:48:27;10.40;64.90
43697;DHT22;29301;47.620;19.560;2023-02-19T02:56:31;10.30;65.60
43697;DHT22;29301;47.620;19.560;2023-02-19T02:58:59;10.30;65.80
43697;DHT22;29301;47.620;19.560;2023-02-19T03:01:30;10.30;66.00
43697;DHT22;29301;47.620;19.560;2023-02-19T03:04:18;10.20;66.30
43697;DHT22;29301;47.620;19.560;2023-02-19T03:06:45;10.20;66.80
43697;DHT22;29301;47.620;19.560;2023-02-19T03:09:14;10.20;67.20
43697;DHT22;29301;47.620;19.560;2023-02-19T03:11:41;10.00;67.70
43697;DHT22;29301;47.620;19.560;2023-02-19T03:14:34;10.00;68.00
43697;DHT22;29301;47.620;19.560;2023-02-19T03:17:25;10.00;68.20
43697;DHT22;29301;47.620;19.560;2023-02-19T03:20:11;10.00;68.40
43697;DHT22;29301;47.620;19.560;2023-02-19T03:22:37;10.00;68.50
43697;DHT22;29301;47.620;19.560;2023-02-19T03:25:06;10.00;68.40
43697;DHT22;29301;47.620;19.560;2023-02-19T03:27:52;10.00;68.60
43697;DHT22;29301;47.620;19.560;2023-02-19T03:30:20;10.00;68.80
43697;DHT22;29301;47.620;19.560;2023-02-19T03:32:48;10.00;68.80
43697;DHT22;29301;47.620;19.560;2023-02-19T03:35:17;10.00;68.70
43697;DHT22;29301;47.620;19.560;2023-02-19T03:37:46;10.00;68.60
43697;DHT22;29301;47.620;19.560;2023-02-19T03:40:13;10.10;68.50
43697;DHT22;29301;47.620;19.560;2023-02-19T04:00:31;10.10;69.00
43697;DHT22;29301;47.620;19.560;2023-02-19T04:03:07;10.00;69.00
43697;DHT22;29301;47.620;19.560;2023-02-19T04:05:36;10.10;69.00
43697;DHT22;29301;47.620;19.560;2023-02-19T04:08:09;10.10;69.10
43697;DHT22;29301;47.620;19.560;2023-02-19T04:10:35;10.10;69.20
43697;DHT22;29301;47.620;19.560;2023-02-19T04:13:05;10.10;69.30
43697;DHT22;29301;47.620;19.560;2023-02-19T04:15:32;10.10;69.40
43697;DHT22;29301;47.620;19.560;2023-02-19T04:18:03;10.10;69.40
43697;DHT22;29301;47.620;19.560;2023-02-19T04:20:31;10.20;69.20
43697;DHT22;29301;47.620;19.560;2023-02-19T04:22:58;10.20;68.90
43697;DHT22;29301;47.620;19.560;2023-02-19T04:25:24;10.30;68.70
43697;DHT22;29301;47.620;19.560;2023-02-19T04:27:50;10.20;68.60
43697;DHT22;29301;47.620;19.560;2023-02-19T04:30:16;10.20;68.70
43697;DHT22;29301;47.620;19.560;2023-02-19T04:32:41;10.20;68.80
43697;DHT22;29301;47.620;19.560;2023-02-19T04:35:07;10.20;68.70
43697;DHT22;29301;47.620;19.560;2023-02-19T04:37:32;10.20;68.60
43697;DHT22;29301;47.620;19.560;2023-02-19T04:39:58;10.30;68.50
43697;DHT22;29301;47.620;19.560;2023-02-19T04:42:24;10.20;68.30
43697;DHT22;29301;47.620;19.560;2023-02-19T04:44:49;10.20;68.20
43697;DHT22;29301;47.620;19.560;2023-02-19T04:47:15;10.20;68.20
43697;DHT22;29301;47.620;19.560;2023-02-19T04:49:43;10.20;68.30
43697;DHT22;29301;47.620;19.560;2023-02-19T04:52:09;10.20;68.60
43697;DHT22;29301;47.620;19.560;2023-02-19T04:54:35;10.20;68.70
43697;DHT22;29301;47.620;19.560;2023-02-19T04:57:00;10.10;68.90
43697;DHT22;29301;47.620;19.560;2023-02-19T04:59:26;10.20;69.10
43697;DHT22;29301;47.620;19.560;2023-02-19T05:01:52;10.20;69.10
43697;DHT22;29301;47.620;19.560;2023-02-19T05:04:18;10.10;69.10
43697;DHT22;29301;47.620;19.560;2023-02-19T05:06:43;10.10;69.20
43697;DHT22;29301;47.620;19.560;2023-02-19T05:09:09;10.10;69.10
43697;DHT22;29301;47.620;19.560;2023-02-19T05:11:34;10.10;69.20
43697;DHT22;29301;47.620;19.560;2023-02-19T05:14:00;10.10;69.00
43697;DHT22;29301;47.620;19.560;2023-02-19T05:16:25;10.10;68.80
43697;DHT22;29301;47.620;19.560;2023-02-19T05:18:51;10.00;68.90
43697;DHT22;29301;47.620;19.560;2023-02-19T05:21:16;10.00;69.00
43697;DHT22;29301;47.620;19.560;2023-02-19T05:23:42;10.10;69.00
43697;DHT22;29301;47.620;19.560;2023-02-19T05:26:08;10.00;68.90
43697;DHT22;29301;47.620;19.560;2023-02-19T05:28:35;10.00;69.20
43697;DHT22;29301;47.620;19.560;2023-02-19T05:31:05;10.00;69.40
43697;DHT22;29301;47.620;19.560;2023-02-19T05:33:31;10.00;69.60
43697;DHT22;29301;47.620;19.560;2023-02-19T05:35:57;9.90;70.00
43697;DHT22;29301;47.620;19.560;2023-02-19T05:38:22;10.00;70.40
43697;DHT22;29301;47.620;19.560;2023-02-19T05:40:48;9.90;70.40
43697;DHT22;29301;47.620;19.560;2023-02-19T05:43:14;9.90;70.50
43697;DHT22;29301;47.620;19.560;2023-02-19T05:45:40;9.90;70.70
43697;DHT22;29301;47.620;19.560;2023-02-19T05:48:06;9.80;71.20
43697;DHT22;29301;47.620;19.560;2023-02-19T05:50:32;9.70;71.60
43697;DHT22;29301;47.620;19.560;2023-02-19T05:52:59;9.70;71.80
43697;DHT22;29301;47.620;19.560;2023-02-19T05:55:25;9.70;71.90
43697;DHT22;29301;47.620;19.560;2023-02-19T05:57:51;9.70;71.80
43697;DHT22;29301;47.620;19.560;2023-02-19T06:00:17;9.70;71.80
43697;DHT22;29301;47.620;19.560;2023-02-19T06:02:43;9.70;71.90
43697;DHT22;29301;47.620;19.560;2023-02-19T06:05:08;9.60;72.20
43697;DHT22;29301;47.620;19.560;2023-02-19T06:07:34;9.60;72.80
43697;DHT22;29301;47.620;19.560;2023-02-19T06:10:00;9.60;73.20
43697;DHT22;29301;47.620;19.560;2023-02-19T06:12:26;9.50;73.70
43697;DHT22;29301;47.620;19.560;2023-02-19T06:14:51;9.50;73.90
43697;DHT22;29301;47.620;19.560;2023-02-19T06:17:17;9.50;73.90
43697;DHT22;29301;47.620;19.560;2023-02-19T06:19:42;9.60;74.10
43697;DHT22;29301;47.620;19.560;2023-02-19T06:22:08;9.60;73.90
43697;DHT22;29301;47.620;19.560;2023-02-19T06:24:34;9.60;73.90
43697;DHT22;29301;47.620;19.560;2023-02-19T06:27:05;9.60;74.00
43697;DHT22;29301;47.620;19.560;2023-02-19T06:29:31;9.60;74.00
43697;DHT22;29301;47.620;19.560;2023-02-19T06:31:57;9.60;73.90
43697;DHT22;29301;47.620;19.560;2023-02-19T06:34:22;9.70;73.70
43697;DHT22;29301;47.620;19.560;2023-02-19T06:36:48;9.70;74.00
43697;DHT22;29301;47.620;19.560;2023-02-19T06:39:14;9.80;73.30
43697;DHT22;29301;47.620;19.560;2023-02-19T06:41:39;9.80;73.10
43697;DHT22;29301;47.620;19.560;2023-02-19T06:44:05;9.90;73.00
43697;DHT22;29301;47.620;19.560;2023-02-19T06:46:31;9.80;73.00
43697;DHT22;29301;47.620;19.560;2023-02-19T06:48:56;9.90;73.00
43697;DHT22;29301;47.620;19.560;2023-02-19T06:51:22;9.90;73.30
43697;DHT22;29301;47.620;19.560;2023-02-19T06:53:50;9.90;73.50
43697;DHT22;29301;47.620;19.560;2023-02-19T06:56:26;9.90;73.60
43697;DHT22;29301;47.620;19.560;2023-02-19T06:58:53;9.90;73.60
43697;DHT22;29301;47.620;19.560;2023-02-19T07:01:19;10.00;73.60
43697;DHT22;29301;47.620;19.560;2023-02-19T07:03:44;10.00;73.80
43697;DHT22;29301;47.620;19.560;2023-02-19T07:06:10;10.00;74.00
43697;DHT22;29301;47.620;19.560;2023-02-19T07:08:35;10.00;74.10
43697;DHT22;29301;47.620;19.560;2023-02-19T07:11:01;10.00;74.20
43697;DHT22;29301;47.620;19.560;2023-02-19T07:13:26;10.10;74.10
43697;DHT22;29301;47.620;19.560;2023-02-19T07:16:25;10.10;74.30
43697;DHT22;29301;47.620;19.560;2023-02-19T07:18:44;10.10;75.30
43697;DHT22;29301;47.620;19.560;2023-02-19T07:21:10;10.20;76.10
43697;DHT22;29301;47.620;19.560;2023-02-19T07:23:36;10.10;77.10
43697;DHT22;29301;47.620;19.560;2023-02-19T07:26:02;10.20;79.10
43697;DHT22;29301;47.620;19.560;2023-02-19T07:28:28;10.10;80.30
43697;DHT22;29301;47.620;19.560;2023-02-19T07:30:53;10.10;81.20
43697;DHT22;29301;47.620;19.560;2023-02-19T07:33:23;10.10;83.60
43697;DHT22;29301;47.620;19.560;2023-02-19T07:35:49;10.10;85.50
43697;DHT22;29301;47.620;19.560;2023-02-19T07:38:15;10.00;88.50
43697;DHT22;29301;47.620;19.560;2023-02-19T07:40:41;10.00;89.60
43697;DHT22;29301;47.620;19.560;2023-02-19T07:43:07;10.00;90.50
43697;DHT22;29301;47.620;19.560;2023-02-19T07:45:32;10.00;91.10
43697;DHT22;29301;47.620;19.560;2023-02-19T07:47:58;10.00;91.60
43697;DHT22;29301;47.620;19.560;2023-02-19T07:50:23;10.00;91.90
43697;DHT22;29301;47.620;19.560;2023-02-19T07:52:49;10.00;92.40
43697;DHT22;29301;47.620;19.560;2023-02-19T07:55:14;9.90;92.80
43697;DHT22;29301;47.620;19.560;2023-02-19T07:57:40;10.00;93.10
43697;DHT22;29301;47.620;19.560;2023-02-19T08:00:05;9.90;93.30
43697;DHT22;29301;47.620;19.560;2023-02-19T08:02:31;10.00;93.30
43697;DHT22;29301;47.620;19.560;2023-02-19T08:05:15;10.00;93.20
43697;DHT22;29301;47.620;19.560;2023-02-19T08:07:40;10.10;93.20
43697;DHT22;29301;47.620;19.560;2023-02-19T08:10:06;10.10;93.00
43697;DHT22;29301;47.620;19.560;2023-02-19T08:12:57;10.10;92.80
43697;DHT22;29301;47.620;19.560;2023-02-19T08:15:42;10.20;92.80
43697;DHT22;29301;47.620;19.560;2023-02-19T08:18:08;10.20;92.60
43697;DHT22;29301;47.620;19.560;2023-02-19T08:20:33;10.30;92.40
43697;DHT22;29301;47.620;19.560;2023-02-19T08:22:59;10.30;92.40
43697;DHT22;29301;47.620;19.560;2023-02-19T08:25:24;10.40;92.20
43697;DHT22;29301;47.620;19.560;2023-02-19T08:27:50;10.40;92.00
43697;DHT22;29301;47.620;19.560;2023-02-19T08:30:16;10.50;91.80
43697;DHT22;29301;47.620;19.560;2023-02-19T08:32:41;10.60;91.30
43697;DHT22;29301;47.620;19.560;2023-02-19T08:35:07;10.70;91.30
43697;DHT22;29301;47.620;19.560;2023-02-19T08:37:32;10.70;90.90
43697;DHT22;29301;47.620;19.560;2023-02-19T08:39:58;10.70;90.70
43697;DHT22;29301;47.620;19.560;2023-02-19T08:42:23;10.80;90.80
43697;DHT22;29301;47.620;19.560;2023-02-19T08:44:49;10.80;90.80
43697;DHT22;29301;47.620;19.560;2023-02-19T08:47:14;10.70;91.20
43697;DHT22;29301;47.620;19.560;2023-02-19T08:49:40;10.60;92.40
43697;DHT22;29301;47.620;19.560;2023-02-19T08:52:05;10.50;93.40
43697;DHT22;29301;47.620;19.560;2023-02-19T08:54:31;10.40;94.60
43697;DHT22;29301;47.620;19.560;2023-02-19T08:56:57;10.40;95.90
43697;DHT22;29301;47.620;19.560;2023-02-19T08:59:22;10.30;96.60
43697;DHT22;29301;47.620;19.560;2023-02-19T09:01:48;10.30;97.50
43697;DHT22;29301;47.620;19.560;2023-02-19T09:04:13;10.30;97.50
43697;DHT22;29301;47.620;19.560;2023-02-19T09:06:39;10.30;98.60
43697;DHT22;29301;47.620;19.560;2023-02-19T09:09:04;10.40;99.00
43697;DHT22;29301;47.620;19.560;2023-02-19T09:11:30;10.30;99.10
43697;DHT22;29301;47.620;19.560;2023-02-19T09:13:55;10.40;99.40
43697;DHT22;29301;47.620;19.560;2023-02-19T09:16:21;10.40;99.90
43697;DHT22;29301;47.620;19.560;2023-02-19T09:18:47;10.40;99.90
43697;DHT22;29301;47.620;19.560;2023-02-19T09:21:13;10.40;99.90
43697;DHT22;29301;47.620;19.560;2023-02-19T09:23:38;10.40;99.90
43697;DHT22;29301;47.620;19.560;2023-02-19T09:26:05;10.50;99.90
43697;DHT22;29301;47.620;19.560;2023-02-19T09:28:33;10.50;99.90
43697;DHT22;29301;47.620;19.560;2023-02-19T09:31:02;10.60;99.90
43697;DHT22;29301;47.620;19.560;2023-02-19T09:33:28;10.50;99.90
43697;DHT22;29301;47.620;19.560;2023-02-19T09:35:53;10.50;99.90
43697;DHT22;29301;47.620;19.560;2023-02-19T09:38:19;10.50;99.90
43697;DHT22;29301;47.620;19.560;2023-02-19T09:40:44;10.50;99.90
43697;DHT22;29301;47.620;19.560;2023-02-19T09:43:12;10.40;99.90
43697;DHT22;29301;47.620;19.560;2023-02-19T09:45:39;10.40;99.90
43697;DHT22;29301;47.620;19.560;2023-02-19T09:48:04;10.30;99.90
43697;DHT22;29301;47.620;19.560;2023-02-19T09:50:38;10.30;99.90
43697;DHT22;29301;47.620;19.560;2023-02-19T09:53:10;10.30;99.90
43697;DHT22;29301;47.620;19.560;2023-02-19T09:55:38;10.20;99.90
43697;DHT22;29301;47.620;19.560;2023-02-19T10:00:53;10.30;99.90
43697;DHT22;29301;47.620;19.560;2023-02-19T10:03:26;10.20;99.90
43697;DHT22;29301;47.620;19.560;2023-02-19T10:05:57;10.50;99.90
43697;DHT22;29301;47.620;19.560;2023-02-19T10:08:23;10.80;99.90
43697;DHT22;29301;47.620;19.560;2023-02-19T10:10:48;11.00;99.90
43697;DHT22;29301;47.620;19.560;2023-02-19T10:15:59;11.00;99.90
43697;DHT22;29301;47.620;19.560;2023-02-19T10:18:27;11.10;99.90
43697;DHT22;29301;47.620;19.560;2023-02-19T10:20:53;11.40;99.90
43697;DHT22;29301;47.620;19.560;2023-02-19T10:23:19;11.60;99.90
43697;DHT22;29301;47.620;19.560;2023-02-19T10:25:55;11.90;99.90
43697;DHT22;29301;47.620;19.560;2023-02-19T10:28:28;12.00;99.90
43697;DHT22;29301;47.620;19.560;2023-02-19T10:30:55;12.20;99.90
43697;DHT22;29301;47.620;19.560;2023-02-19T10:33:21;12.20;99.90
43697;DHT22;29301;47.620;19.560;2023-02-19T10:35:51;12.30;99.90
43697;DHT22;29301;47.620;19.560;2023-02-19T10:38:17;12.40;99.90
43697;DHT22;29301;47.620;19.560;2023-02-19T10:40:44;12.40;99.90
43697;DHT22;29301;47.620;19.560;2023-02-19T10:43:18;12.40;99.90
43697;DHT22;29301;47.620;19.560;2023-02-19T10:45:45;12.30;99.90
43697;DHT22;29301;47.620;19.560;2023-02-19T10:48:21;12.20;99.90
43697;DHT22;29301;47.620;19.560;2023-02-19T10:50:52;12.20;99.90
43697;DHT22;29301;47.620;19.560;2023-02-19T10:53:38;12.20;99.90
43697;DHT22;29301;47.620;19.560;2023-02-19T10:56:05;12.30;99.90
43697;DHT22;29301;47.620;19.560;2023-02-19T10:58:31;12.30;99.90
43697;DHT22;29301;47.620;19.560;2023-02-19T11:06:37;12.70;99.90
43697;DHT22;29301;47.620;19.560;2023-02-19T11:09:03;12.80;99.30
43697;DHT22;29301;47.620;19.560;2023-02-19T11:13:58;12.80;96.40
43697;DHT22;29301;47.620;19.560;2023-02-19T11:16:41;12.80;96.30
43697;DHT22;29301;47.620;19.560;2023-02-19T11:19:24;12.90;95.90
43697;DHT22;29301;47.620;19.560;2023-02-19T11:21:51;13.10;94.40
43697;DHT22;29301;47.620;19.560;2023-02-19T11:24:22;13.30;92.60
43697;DHT22;29301;47.620;19.560;2023-02-19T11:26:47;13.40;90.90
43697;DHT22;29301;47.620;19.560;2023-02-19T11:29:17;13.50;89.50
43697;DHT22;29301;47.620;19.560;2023-02-19T11:31:51;13.50;87.60
43697;DHT22;29301;47.620;19.560;2023-02-19T11:36:45;13.60;88.10
43697;DHT22;29301;47.620;19.560;2023-02-19T11:49:19;14.40;75.50
43697;DHT22;29301;47.620;19.560;2023-02-19T11:59:38;14.50;70.00
43697;DHT22;29301;47.620;19.560;2023-02-19T12:02:24;14.30;68.20
43697;DHT22;29301;47.620;19.560;2023-02-19T12:07:27;14.20;65.40
43697;DHT22;29301;47.620;19.560;2023-02-19T12:35:26;14.00;75.70
43697;DHT22;29301;47.620;19.560;2023-02-19T12:43:20;14.00;74.30
43697;DHT22;29301;47.620;19.560;2023-02-19T12:45:47;14.10;71.10
43697;DHT22;29301;47.620;19.560;2023-02-19T12:48:17;14.10;69.80
43697;DHT22;29301;47.620;19.560;2023-02-19T12:50:44;14.10;66.80
43697;DHT22;29301;47.620;19.560;2023-02-19T12:53:20;14.00;66.90
43697;DHT22;29301;47.620;19.560;2023-02-19T12:55:47;13.80;68.90
43697;DHT22;29301;47.620;19.560;2023-02-19T12:58:23;13.70;70.90
43697;DHT22;29301;47.620;19.560;2023-02-19T13:00:52;13.70;68.70
43697;DHT22;29301;47.620;19.560;2023-02-19T13:08:28;13.30;74.90
43697;DHT22;29301;47.620;19.560;2023-02-19T13:11:00;13.00;78.20
43697;DHT22;29301;47.620;19.560;2023-02-19T13:13:28;12.70;81.70
43697;DHT22;29301;47.620;19.560;2023-02-19T13:15:59;12.60;83.00
43697;DHT22;29301;47.620;19.560;2023-02-19T13:18:27;12.60;85.50
43697;DHT22;29301;47.620;19.560;2023-02-19T13:20:54;12.70;86.50
43697;DHT22;29301;47.620;19.560;2023-02-19T13:34:02;13.20;79.50
43697;DHT22;29301;47.620;19.560;2023-02-19T13:36:29;13.20;80.10
43697;DHT22;29301;47.620;19.560;2023-02-19T13:38:54;13.40;76.00
43697;DHT22;29301;47.620;19.560;2023-02-19T13:44:01;13.40;70.60
43697;DHT22;29301;47.620;19.560;2023-02-19T13:46:35;13.30;71.40
43697;DHT22;29301;47.620;19.560;2023-02-19T13:51:46;13.30;70.30
43697;DHT22;29301;47.620;19.560;2023-02-19T13:54:19;13.40;68.80
43697;DHT22;29301;47.620;19.560;2023-02-19T13:56:45;13.50;69.40
43697;DHT22;29301;47.620;19.560;2023-02-19T14:22:00;12.30;83.10
43697;DHT22;29301;47.620;19.560;2023-02-19T14:24:25;12.20;83.60
43697;DHT22;29301;47.620;19.560;2023-02-19T14:26:51;12.20;83.20
43697;DHT22;29301;47.620;19.560;2023-02-19T14:29:17;12.20;83.20
43697;DHT22;29301;47.620;19.560;2023-02-19T14:31:43;12.10;82.60
43697;DHT22;29301;47.620;19.560;2023-02-19T14:34:18;12.10;82.30
43697;DHT22;29301;47.620;19.560;2023-02-19T14:36:50;12.10;80.40
43697;DHT22;29301;47.620;19.560;2023-02-19T14:39:18;12.10;77.40
43697;DHT22;29301;47.620;19.560;2023-02-19T14:41:45;12.00;74.70
43697;DHT22;29301;47.620;19.560;2023-02-19T14:44:16;12.00;71.20
43697;DHT22;29301;47.620;19.560;2023-02-19T14:47:28;12.00;70.60
43697;DHT22;29301;47.620;19.560;2023-02-19T14:52:00;12.00;69.40
43697;DHT22;29301;47.620;19.560;2023-02-19T14:57:02;12.00;67.90
43697;DHT22;29301;47.620;19.560;2023-02-19T14:59:29;12.00;69.20
43697;DHT22;29301;47.620;19.560;2023-02-19T15:04:25;12.00;69.80
43697;DHT22;29301;47.620;19.560;2023-02-19T15:06:51;12.10;69.80
43697;DHT22;29301;47.620;19.560;2023-02-19T15:09:18;12.20;69.60
43697;DHT22;29301;47.620;19.560;2023-02-19T15:11:44;12.20;70.00
43697;DHT22;29301;47.620;19.560;2023-02-19T15:14:16;12.10;69.50
43697;DHT22;29301;47.620;19.560;2023-02-19T15:16:43;12.10;69.40
43697;DHT22;29301;47.620;19.560;2023-02-19T15:19:09;12.00;69.40
43697;DHT22;29301;47.620;19.560;2023-02-19T15:21:38;11.90;69.30
43697;DHT22;29301;47.620;19.560;2023-02-19T15:24:04;11.90;68.90
43697;DHT22;29301;47.620;19.560;2023-02-19T15:26:37;11.80;68.70
43697;DHT22;29301;47.620;19.560;2023-02-19T15:29:14;11.80;69.00
43697;DHT22;29301;47.620;19.560;2023-02-19T15:31:44;11.70;69.10
43697;DHT22;29301;47.620;19.560;2023-02-19T15:34:17;11.60;69.20
43697;DHT22;29301;47.620;19.560;2023-02-19T15:36:43;11.60;68.80
43697;DHT22;29301;47.620;19.560;2023-02-19T15:39:15;11.50;69.20
43697;DHT22;29301;47.620;19.560;2023-02-19T15:41:41;11.50;70.10
43697;DHT22;29301;47.620;19.560;2023-02-19T15:44:31;11.40;70.70
43697;DHT22;29301;47.620;19.560;2023-02-19T15:46:54;11.30;70.60
43697;DHT22;29301;47.620;19.560;2023-02-19T15:49:25;11.30;71.80
43697;DHT22;29301;47.620;19.560;2023-02-19T15:52:09;11.30;73.30
43697;DHT22;29301;47.620;19.560;2023-02-19T15:54:42;11.20;73.90
43697;DHT22;29301;47.620;19.560;2023-02-19T15:57:10;11.20;74.30
43697;DHT22;29301;47.620;19.560;2023-02-19T15:59:39;11.20;75.40
43697;DHT22;29301;47.620;19.560;2023-02-19T16:02:12;11.10;75.10
43697;DHT22;29301;47.620;19.560;2023-02-19T16:04:39;11.10;75.80
43697;DHT22;29301;47.620;19.560;2023-02-19T16:07:19;11.10;76.70
43697;DHT22;29301;47.620;19.560;2023-02-19T16:09:46;11.00;77.40
43697;DHT22;29301;47.620;19.560;2023-02-19T16:12:19;11.00;78.20
43697;DHT22;29301;47.620;19.560;2023-02-19T16:14:44;10.90;78.80
43697;DHT22;29301;47.620;19.560;2023-02-19T16:19:43;10.90;79.50
43697;DHT22;29301;47.620;19.560;2023-02-19T16:22:10;10.80;79.80
43697;DHT22;29301;47.620;19.560;2023-02-19T16:24:39;10.80;80.20
43697;DHT22;29301;47.620;19.560;2023-02-19T16:27:06;10.80;80.90
43697;DHT22;29301;47.620;19.560;2023-02-19T16:29:32;10.70;81.50
43697;DHT22;29301;47.620;19.560;2023-02-19T16:32:01;10.70;82.50
43697;DHT22;29301;47.620;19.560;2023-02-19T16:34:43;10.60;83.20
43697;DHT22;29301;47.620;19.560;2023-02-19T16:42:32;10.60;84.60
43697;DHT22;29301;47.620;19.560;2023-02-19T16:44:58;10.60;84.50
43697;DHT22;29301;47.620;19.560;2023-02-19T16:47:25;10.50;84.90
43697;DHT22;29301;47.620;19.560;2023-02-19T16:49:51;10.40;85.50
43697;DHT22;29301;47.620;19.560;2023-02-19T16:52:17;10.40;85.90
43697;DHT22;29301;47.620;19.560;2023-02-19T16:54:43;10.30;86.20
43697;DHT22;29301;47.620;19.560;2023-02-19T16:57:08;10.30;86.80
43697;DHT22;29301;47.620;19.560;2023-02-19T16:59:34;10.30;87.30
43697;DHT22;29301;47.620;19.560;2023-02-19T17:02:01;10.20;87.60
43697;DHT22;29301;47.620;19.560;2023-02-19T17:04:27;10.30;87.30
43697;DHT22;29301;47.620;19.560;2023-02-19T17:06:54;10.20;87.60
43697;DHT22;29301;47.620;19.560;2023-02-19T17:09:19;10.30;87.30
43697;DHT22;29301;47.620;19.560;2023-02-19T17:11:45;10.20;86.90
43697;DHT22;29301;47.620;19.560;2023-02-19T17:14:10;10.20;86.50
43697;DHT22;29301;47.620;19.560;2023-02-19T17:16:36;10.20;85.60
43697;DHT22;29301;47.620;19.560;2023-02-19T17:19:14;10.20;84.70
43697;DHT22;29301;47.620;19.560;2023-02-19T17:21:39;10.20;83.20
43697;DHT22;29301;47.620;19.560;2023-02-19T17:24:05;10.20;82.20
43697;DHT22;29301;47.620;19.560;2023-02-19T17:26:31;10.20;81.50
43697;DHT22;29301;47.620;19.560;2023-02-19T17:29:01;10.10;80.90
43697;DHT22;29301;47.620;19.560;2023-02-19T17:31:26;10.00;80.90
43697;DHT22;29301;47.620;19.560;2023-02-19T17:33:52;10.00;80.40
43697;DHT22;29301;47.620;19.560;2023-02-19T17:36:27;10.00;80.20
43697;DHT22;29301;47.620;19.560;2023-02-19T17:38:55;9.90;80.40
43697;DHT22;29301;47.620;19.560;2023-02-19T17:41:21;9.90;80.70
43697;DHT22;29301;47.620;19.560;2023-02-19T17:43:46;9.90;81.00
43697;DHT22;29301;47.620;19.560;2023-02-19T17:46:15;9.90;81.10
43697;DHT22;29301;47.620;19.560;2023-02-19T17:48:42;9.90;81.20
43697;DHT22;29301;47.620;19.560;2023-02-19T17:51:07;9.90;81.10
43697;DHT22;29301;47.620;19.560;2023-02-19T17:53:33;10.00;81.10
43697;DHT22;29301;47.620;19.560;2023-02-19T17:55:58;10.00;81.00
43697;DHT22;29301;47.620;19.560;2023-02-19T17:58:24;9.90;80.90
43697;DHT22;29301;47.620;19.560;2023-02-19T18:00:49;9.90;81.20
43697;DHT22;29301;47.620;19.560;2023-02-19T18:03:15;9.90;81.50
43697;DHT22;29301;47.620;19.560;2023-02-19T18:05:40;9.80;82.10
43697;DHT22;29301;47.620;19.560;2023-02-19T18:08:06;9.70;82.80